Friday, November 24, 2017, 1:18 PM GMT
Back to Local

CYHU, Saint Hubert Airport

Location: , , Canada Lat: 45.517
Local Time: 1:18 PM GMT (13:18 GMT) Lon: -73.417
Time Zone: GMT Elev: 88 ft

Show me the last for .
Show Coded

Time T Td Feel RH Dir Speed Gust Alt SLP Vis Weather Sky Remarks
2017-11-24 13:00 37 28 31 69 250° 8 - 29.90 29.90 9 OVC055 None
2017-11-24 12:10 37 28 28 69 240° 10 17 29.89 29.89 9 SCT024 OVC055 None
2017-11-24 12:00 37 28 29 69 240° 13 - 29.89 29.89 9 BKN024 BKN042 OVC055 None
2017-11-24 11:47 37 28 29 69 250° 13 - 29.88 29.89 9 BKN024 OVC055 None
2017-11-24 11:00 37 28 29 69 250° 13 - 29.87 29.88 9 SCT028 OVC055 None
2017-11-24 10:00 37 28 29 69 250° 15 - 29.87 29.88 9 FEW027 OVC055 None
2017-11-24 09:00 37 30 27 74 240° 14 21 29.86 29.87 9 OVC030 None
2017-11-24 08:00 36 32 25 86 230° 12 20 29.86 29.87 9 BKN032 OVC060 None
2017-11-24 07:02 36 32 27 86 230° 13 - 29.86 29.86 9 SCT019 SCT025 BKN032 OVC060 None
2017-11-24 07:00 36 32 25 86 220° 12 17 29.85 29.86 9 -RA SCT019 SCT025 BKN032 OVC060 None
2017-11-24 06:08 34 30 25 86 220° 12 - 29.84 29.85 9 -RA FEW021 OVC065 None
2017-11-24 06:05 34 30 25 86 220° 12 - 29.84 29.85 9 -RA -UP OVC065 None
2017-11-24 06:02 34 30 25 86 220° 13 - 29.84 29.85 9 -RASN -UP OVC065 None
2017-11-24 06:00 34 30 25 86 220° 12 - 29.84 29.85 9 -SN -UP OVC065 None
2017-11-24 05:59 34 30 25 86 220° 13 - 29.84 29.85 9 -SN -UP OVC065 None
2017-11-24 05:21 34 28 25 80 220° 13 - 29.84 29.85 8 -SN BKN041 OVC048 None
2017-11-24 05:15 34 28 25 80 210° 12 - 29.84 29.85 9 -RASN OVC042 None
2017-11-24 05:00 34 28 25 80 210° 13 - 29.85 29.85 9 -RA OVC044 None
2017-11-24 04:50 34 28 26 80 210° 10 - 29.85 29.86 9 -RA OVC046 None
2017-11-24 04:46 34 28 25 80 210° 13 - 29.85 29.86 9 -RA -UP OVC046 None
2017-11-24 04:44 34 28 25 80 210° 12 - 29.85 29.86 9 -RASN -UP OVC046 None
2017-11-24 04:40 32 28 21 86 210° 12 17 29.85 29.86 9 -SN -UP OVC046 None
2017-11-24 04:00 32 27 24 80 210° 10 - 29.85 29.85 9 -SN OVC065 None
2017-11-24 03:28 32 25 23 74 200° 13 - 29.85 29.86 9 -SN OVC065 None
2017-11-24 03:22 32 25 24 74 200° 10 - 29.85 29.86 9 -RASN OVC065 None
2017-11-24 03:11 32 25 24 74 200° 10 - 29.85 29.86 9 -RA OVC065 None
2017-11-24 03:05 32 25 24 74 200° 10 - 29.85 29.86 9 -RASN OVC065 None
2017-11-24 03:01 32 25 24 74 200° 10 - 29.85 29.86 9 -SN OVC065 None
2017-11-24 03:00 32 25 23 74 200° 12 - 29.85 29.86 9 OVC065 None
2017-11-24 02:00 32 23 23 68 190° 12 - 29.86 29.87 9 FEW050 OVC065 None
2017-11-24 01:22 30 23 23 74 190° 8 - 29.88 29.89 9 SCT030 SCT035 BKN070 OVC110 None
2017-11-24 01:06 30 21 22 68 180° 9 - 29.88 29.89 9 -SN FEW032 OVC110 None
2017-11-24 01:00 30 23 22 74 180° 9 - 29.88 29.89 9 OVC110 None
2017-11-24 00:37 30 23 18 74 180° 10 18 29.89 29.90 9 OVC110 None
2017-11-24 00:27 30 23 21 74 180° 12 - 29.89 29.90 9 -SN FEW049 OVC110 None
2017-11-24 00:00 30 23 23 74 180° 8 - 29.90 29.91 9 OVC049 None
2017-11-23 23:00 30 21 21 68 180° 12 - 29.91 29.92 9 BKN030 OVC110 None
2017-11-23 22:00 28 19 18 68 180° 12 - 29.92 29.93 9 BKN045 OVC110 None
2017-11-23 21:00 28 18 19 63 180° 10 - 29.94 29.95 9 BKN047 OVC110 None
2017-11-23 20:00 28 18 19 63 190° 10 - 29.96 29.97 9 OVC039 None
2017-11-23 19:00 27 18 16 68 230° 12 - 29.99 29.99 9 OVC041 None
2017-11-23 18:00 28 18 17 63 230° 14 - 30.00 30.01 9 FEW021 OVC170 None
2017-11-23 17:00 25 16 13 68 230° 14 - 30.02 30.03 9 FEW110 SCT140 None
2017-11-23 16:00 25 14 12 62 230° 15 - 30.06 30.07 9 FEW110 None
2017-11-23 15:00 25 12 13 58 260° 13 - 30.10 30.10 9 BKN150 None
2017-11-23 14:00 23 14 12 67 250° 10 - 30.12 30.13 9 CLR None

Support USWX by starting your Amazon purchase here.